Time;durP1;ratioP1;P1;durP2;ratioP2;P2;SDS_P1;SDS_P2;PMS_P1;PMS_P2;Temp;Humidity;BMP_temperature;BMP_pressure;BME280_temperature;BME280_humidity;BME280_pressure;Samples;Min_cycle;Max_cycle;Signal;HPM_P1;HPM_P2
2022/04/14 00:01:52;;;;;;;18.00;9.07;;;10.90;99.90;;;;;;5029442;28;20044;-71
2022/04/14 00:04:18;;;;;;;22.15;8.65;;;10.90;99.90;;;;;;5030609;28;20037;-71
2022/04/14 00:06:43;;;;;;;13.45;8.45;;;10.90;99.90;;;;;;5031357;28;20049;-72
2022/04/14 00:09:09;;;;;;;18.10;8.88;;;10.90;99.90;;;;;;5030980;28;20045;-71
2022/04/14 00:11:38;;;;;;;17.50;9.63;;;10.90;99.90;;;;;;5046600;28;20082;-71
2022/04/14 00:14:04;;;;;;;17.88;9.10;;;10.80;99.90;;;;;;5065622;28;20036;-71
2022/04/14 00:16:30;;;;;;;19.48;9.07;;;10.80;99.90;;;;;;5045140;28;20044;-71
2022/04/14 00:18:55;;;;;;;15.25;7.82;;;10.80;99.90;;;;;;5047098;28;20519;-71
2022/04/14 00:21:21;;;;;;;15.65;9.10;;;10.80;99.90;;;;;;5050318;28;20382;-72
2022/04/14 00:23:47;;;;;;;19.20;9.07;;;10.70;99.90;;;;;;5064335;28;20540;-71
2022/04/14 00:26:12;;;;;;;16.92;8.80;;;10.70;99.90;;;;;;5047755;28;20441;-71
2022/04/14 00:28:38;;;;;;;18.38;9.18;;;10.80;99.90;;;;;;5063681;28;20040;-72
2022/04/14 00:31:04;;;;;;;17.70;9.15;;;10.70;99.90;;;;;;5046989;28;20068;-71
2022/04/14 00:33:33;;;;;;;15.70;9.27;;;10.60;99.90;;;;;;5063622;28;20048;-71
2022/04/14 00:35:59;;;;;;;19.58;9.93;;;10.60;99.90;;;;;;5032863;28;20032;-72
2022/04/14 00:38:25;;;;;;;18.58;9.23;;;10.60;99.90;;;;;;5048755;28;20044;-71
2022/04/14 00:40:52;;;;;;;18.27;10.25;;;10.60;99.90;;;;;;5028495;28;20395;-71
2022/04/14 00:43:19;;;;;;;15.43;9.88;;;10.50;99.90;;;;;;5047735;28;20280;-71
2022/04/14 00:45:46;;;;;;;17.60;10.02;;;10.50;99.90;;;;;;5046493;28;20059;-71
2022/04/14 00:48:13;;;;;;;16.95;10.15;;;10.50;99.90;;;;;;5048817;28;20133;-70
2022/04/14 00:50:39;;;;;;;16.33;9.38;;;10.40;99.90;;;;;;5047791;28;20046;-71
2022/04/14 00:53:05;;;;;;;16.70;9.65;;;10.40;99.90;;;;;;5047997;28;20041;-71
2022/04/14 00:55:31;;;;;;;15.13;9.88;;;10.40;99.90;;;;;;5056206;28;20056;-71
2022/04/14 00:57:57;;;;;;;17.13;10.60;;;10.30;99.90;;;;;;5039851;28;20040;-71
2022/04/14 01:00:22;;;;;;;22.02;10.25;;;10.30;99.90;;;;;;5049359;28;20060;-71
2022/04/14 01:02:48;;;;;;;15.85;9.23;;;10.30;99.90;;;;;;5031326;28;20508;-71
2022/04/14 01:05:15;;;;;;;17.23;9.75;;;10.20;99.90;;;;;;5032213;28;20051;-71
2022/04/14 01:07:44;;;;;;;15.40;9.07;;;10.20;99.90;;;;;;5066351;28;20405;-71
2022/04/14 01:10:10;;;;;;;22.25;10.20;;;10.10;99.90;;;;;;5065656;28;20409;-71
2022/04/14 01:12:36;;;;;;;19.35;10.07;;;10.20;99.90;;;;;;5047357;28;20043;-70
2022/04/14 01:15:02;;;;;;;16.98;9.93;;;10.10;99.90;;;;;;5032745;28;20158;-71
2022/04/14 01:17:28;;;;;;;21.77;11.15;;;10.00;99.90;;;;;;5066239;28;20041;-71
2022/04/14 01:19:54;;;;;;;23.02;10.65;;;10.00;99.90;;;;;;5048036;28;20047;-71
2022/04/14 01:22:34;;;;;;;17.35;10.25;;;9.90;99.90;;;;;;5065835;28;20051;-70
2022/04/14 01:25:02;;;;;;;17.95;10.50;;;9.90;99.90;;;;;;5047662;28;20062;-73
2022/04/14 01:27:28;;;;;;;17.65;9.80;;;9.80;99.90;;;;;;5046558;28;20064;-73
2022/04/14 01:29:54;;;;;;;21.17;10.68;;;9.80;99.90;;;;;;5046668;28;20074;-71
2022/04/14 01:32:21;;;;;;;17.42;10.02;;;9.80;99.90;;;;;;5023360;28;20048;-71
2022/04/14 01:34:48;;;;;;;18.83;10.88;;;9.80;99.90;;;;;;5027986;28;20045;-70
2022/04/14 01:37:14;;;;;;;17.80;10.93;;;9.70;99.90;;;;;;5027836;28;20467;-70
2022/04/14 01:39:40;;;;;;;21.65;10.05;;;9.70;99.90;;;;;;5047208;28;20119;-71
2022/04/14 01:42:06;;;;;;;19.77;10.63;;;9.70;99.90;;;;;;5051582;28;20106;-71
2022/04/14 01:44:32;;;;;;;21.45;11.25;;;9.60;99.90;;;;;;5070149;28;20040;-70
2022/04/14 01:46:58;;;;;;;22.48;11.98;;;9.60;99.90;;;;;;5034134;28;20736;-70
2022/04/14 01:49:23;;;;;;;19.17;11.23;;;9.60;99.90;;;;;;5051066;28;20089;-71
2022/04/14 01:51:49;;;;;;;21.02;12.15;;;9.60;99.90;;;;;;5047555;28;20477;-71
2022/04/14 01:54:15;;;;;;;20.58;11.45;;;9.50;99.90;;;;;;5054354;28;20102;-70
2022/04/14 01:56:41;;;;;;;22.80;11.57;;;9.50;99.90;;;;;;5066189;28;20083;-72
2022/04/14 01:59:08;;;;;;;19.77;11.35;;;9.50;99.90;;;;;;5066417;28;20071;-70
2022/04/14 02:01:34;;;;;;;20.45;11.88;;;9.50;99.90;;;;;;5066725;28;20120;-70
2022/04/14 02:04:02;;;;;;;20.75;12.13;;;9.40;99.90;;;;;;5043012;28;20033;-70
2022/04/14 02:06:28;;;;;;;19.52;11.98;;;9.30;99.90;;;;;;5068701;28;20400;-70
2022/04/14 02:08:54;;;;;;;19.75;11.77;;;9.30;99.90;;;;;;5051082;28;20033;-70
2022/04/14 02:11:20;;;;;;;24.02;13.07;;;9.30;99.90;;;;;;5064105;28;20405;-70
2022/04/14 02:13:46;;;;;;;23.38;12.75;;;9.60;99.90;;;;;;5068148;28;20525;-70
2022/04/14 02:16:11;;;;;;;24.33;13.07;;;9.20;99.90;;;;;;5051598;28;20048;-71
2022/04/14 02:18:37;;;;;;;19.67;12.90;;;9.20;99.90;;;;;;5033519;28;20131;-70
2022/04/14 02:21:03;;;;;;;25.27;13.48;;;9.20;99.90;;;;;;5048048;28;20051;-70
2022/04/14 02:23:29;;;;;;;22.80;12.98;;;9.20;99.90;;;;;;5049447;28;20366;-70
2022/04/14 02:25:55;;;;;;;25.05;13.68;;;9.10;99.90;;;;;;5067763;28;20060;-70
2022/04/14 02:28:21;;;;;;;25.17;14.55;;;9.10;99.90;;;;;;5033844;28;20080;-70
2022/04/14 02:30:47;;;;;;;25.98;15.48;;;9.10;99.90;;;;;;5057076;28;20359;-70
2022/04/14 02:33:13;;;;;;;23.23;14.70;;;9.10;99.90;;;;;;5033290;28;20119;-70
2022/04/14 02:35:39;;;;;;;27.27;14.57;;;9.10;99.90;;;;;;5067692;28;20556;-71
2022/04/14 02:38:04;;;;;;;26.95;14.68;;;9.10;99.90;;;;;;5049902;28;20123;-71
2022/04/14 02:40:30;;;;;;;29.30;14.90;;;9.00;99.90;;;;;;5043269;28;20075;-70
2022/04/14 02:42:57;;;;;;;24.77;15.73;;;9.00;99.90;;;;;;5068991;28;20426;-70
2022/04/14 02:45:24;;;;;;;28.63;15.23;;;9.00;99.90;;;;;;5058506;28;20041;-70
2022/04/14 02:47:50;;;;;;;31.73;15.57;;;9.00;99.90;;;;;;5068028;28;20075;-71
2022/04/14 02:50:15;;;;;;;25.20;15.40;;;9.00;99.90;;;;;;5052741;28;20052;-71
2022/04/14 02:52:42;;;;;;;27.15;14.75;;;8.90;99.90;;;;;;5032741;28;20041;-71
2022/04/14 02:55:08;;;;;;;26.80;16.38;;;8.90;99.90;;;;;;5065823;28;20028;-70
2022/04/14 02:57:34;;;;;;;24.92;15.90;;;8.80;99.90;;;;;;5045538;28;20053;-72
2022/04/14 03:00:00;;;;;;;28.80;15.77;;;8.80;99.90;;;;;;5046669;28;20045;-71
2022/04/14 03:02:26;;;;;;;24.27;15.88;;;8.80;99.90;;;;;;5047114;28;20052;-71
2022/04/14 03:04:53;;;;;;;30.80;17.52;;;8.70;99.90;;;;;;5047281;28;20345;-71
2022/04/14 03:07:19;;;;;;;27.35;16.33;;;8.70;99.90;;;;;;5047229;28;20084;-71
2022/04/14 03:09:45;;;;;;;28.33;16.88;;;8.70;99.90;;;;;;5045477;28;20052;-71
2022/04/14 03:12:12;;;;;;;30.27;17.13;;;8.70;99.90;;;;;;5047703;28;20045;-68
2022/04/14 03:14:37;;;;;;;31.92;17.13;;;8.70;99.90;;;;;;5046387;28;20040;-69
2022/04/14 03:17:04;;;;;;;30.90;17.35;;;8.60;99.90;;;;;;5047659;28;20060;-69
2022/04/14 03:19:29;;;;;;;27.00;16.98;;;8.60;99.90;;;;;;5028267;28;20098;-69
2022/04/14 03:21:55;;;;;;;33.40;18.17;;;8.60;99.90;;;;;;5048049;28;20041;-69
2022/04/14 03:24:21;;;;;;;32.95;17.52;;;8.60;99.90;;;;;;5045619;28;20055;-69
2022/04/14 03:26:46;;;;;;;29.52;17.15;;;8.50;99.90;;;;;;5045712;28;20048;-70
2022/04/14 03:29:12;;;;;;;31.70;17.98;;;8.50;99.90;;;;;;5046194;28;20528;-69
2022/04/14 03:31:38;;;;;;;33.28;18.45;;;8.50;99.90;;;;;;5028477;28;20038;-69
2022/04/14 03:34:03;;;;;;;29.30;17.88;;;8.50;99.90;;;;;;5028417;28;20041;-70
2022/04/14 03:36:29;;;;;;;31.23;18.55;;;8.50;99.90;;;;;;5045044;28;20401;-70
2022/04/14 03:38:55;;;;;;;30.42;20.00;;;8.50;99.90;;;;;;5045243;28;20118;-70
2022/04/14 03:41:20;;;;;;;29.05;18.15;;;8.40;99.90;;;;;;5029336;28;20048;-71
2022/04/14 03:43:46;;;;;;;29.02;17.92;;;8.40;99.90;;;;;;5045236;28;20037;-71
2022/04/14 03:46:14;;;;;;;29.48;17.60;;;8.30;99.90;;;;;;5046417;28;20092;-71
2022/04/14 03:48:41;;;;;;;30.63;18.55;;;8.40;99.90;;;;;;5045006;28;20045;-70
2022/04/14 03:51:10;;;;;;;30.63;18.25;;;8.50;99.90;;;;;;5046109;28;20048;-70
2022/04/14 03:53:36;;;;;;;34.30;19.05;;;8.30;99.90;;;;;;5044360;28;20076;-71
2022/04/14 03:56:02;;;;;;;29.52;17.58;;;8.30;99.90;;;;;;5045297;28;20088;-71
2022/04/14 03:58:27;;;;;;;33.17;19.40;;;8.30;99.90;;;;;;5044777;28;20056;-71
2022/04/14 04:00:53;;;;;;;31.08;17.58;;;8.20;99.90;;;;;;5043752;28;20052;-72
2022/04/14 04:03:19;;;;;;;31.83;18.17;;;8.20;99.90;;;;;;5046714;28;20072;-72
2022/04/14 04:05:44;;;;;;;29.67;17.13;;;8.20;99.90;;;;;;5045207;28;20052;-72
2022/04/14 04:08:10;;;;;;;29.40;18.17;;;8.10;99.90;;;;;;5043187;28;20041;-71
2022/04/14 04:10:36;;;;;;;28.13;17.45;;;8.10;99.90;;;;;;5028782;28;20116;-70
2022/04/14 04:13:02;;;;;;;29.33;17.17;;;8.10;99.90;;;;;;5044927;28;20037;-70
2022/04/14 04:15:27;;;;;;;27.48;18.02;;;8.10;99.90;;;;;;5028702;28;20095;-70
2022/04/14 04:17:53;;;;;;;34.00;17.38;;;8.00;99.90;;;;;;5045590;28;20194;-70
2022/04/14 04:20:19;;;;;;;27.70;17.48;;;8.00;99.90;;;;;;5045410;28;20045;-70
2022/04/14 04:22:45;;;;;;;28.33;18.27;;;7.90;99.90;;;;;;5045649;28;20041;-71
2022/04/14 04:25:11;;;;;;;30.73;17.80;;;7.90;99.90;;;;;;5045232;28;20118;-70
2022/04/14 04:27:37;;;;;;;29.27;17.42;;;7.90;99.90;;;;;;5044377;28;20045;-69
2022/04/14 04:30:05;;;;;;;33.40;18.67;;;7.80;99.90;;;;;;5046143;28;20917;-70
2022/04/14 04:32:33;;;;;;;33.35;18.75;;;7.80;99.90;;;;;;5040811;28;20041;-70
2022/04/14 04:35:00;;;;;;;32.33;19.98;;;7.80;99.90;;;;;;5030293;28;20040;-70
2022/04/14 04:37:26;;;;;;;31.38;18.85;;;7.80;99.90;;;;;;5043936;28;20391;-71
2022/04/14 04:39:51;;;;;;;33.05;19.40;;;7.80;99.90;;;;;;5043116;28;20056;-70
2022/04/14 04:42:17;;;;;;;31.92;19.55;;;7.80;99.90;;;;;;5026399;28;20049;-69
2022/04/14 04:44:42;;;;;;;32.60;19.42;;;7.80;99.90;;;;;;5043734;28;20052;-69
2022/04/14 04:47:08;;;;;;;33.50;20.77;;;7.80;99.90;;;;;;5042840;28;20041;-71
2022/04/14 04:49:34;;;;;;;34.13;20.45;;;7.80;99.90;;;;;;5035603;28;20104;-71
2022/04/14 04:52:00;;;;;;;32.38;20.52;;;7.80;99.90;;;;;;5029867;28;20045;-70
2022/04/14 04:54:26;;;;;;;34.55;19.98;;;7.80;99.90;;;;;;5024311;28;20096;-71
2022/04/14 04:56:52;;;;;;;35.28;20.83;;;7.70;99.90;;;;;;5046975;28;20041;-71
2022/04/14 04:59:18;;;;;;;33.05;19.48;;;7.80;99.90;;;;;;5064178;28;20040;-71
2022/04/14 05:01:44;;;;;;;35.40;20.45;;;7.80;99.90;;;;;;5041278;28;20094;-71
2022/04/14 05:04:11;;;;;;;35.08;22.35;;;7.80;99.90;;;;;;5030682;28;20135;-71
2022/04/14 05:06:40;;;;;;;32.58;20.48;;;7.80;99.90;;;;;;5031585;28;20037;-70
2022/04/14 05:09:09;;;;;;;37.50;20.80;;;7.70;99.90;;;;;;5041793;28;20148;-70
2022/04/14 05:11:35;;;;;;;33.55;20.85;;;7.80;99.90;;;;;;5045640;28;20041;-70
2022/04/14 05:14:01;;;;;;;40.47;23.17;;;7.90;99.90;;;;;;5064502;28;20036;-70
2022/04/14 05:16:27;;;;;;;39.35;23.83;;;7.80;99.90;;;;;;5043563;28;20123;-70
2022/04/14 05:18:53;;;;;;;36.65;22.63;;;7.90;99.90;;;;;;5066920;28;20120;-70
2022/04/14 05:21:18;;;;;;;36.00;21.70;;;8.10;99.90;;;;;;5049526;28;20056;-70
2022/04/14 05:23:44;;;;;;;41.58;23.33;;;8.40;99.90;;;;;;5031454;28;20094;-70
2022/04/14 05:26:10;;;;;;;41.47;24.83;;;9.00;99.90;;;;;;5046363;28;20054;-70
2022/04/14 05:28:36;;;;;;;35.60;23.85;;;9.70;99.90;;;;;;5048671;28;20132;-70
2022/04/14 05:31:02;;;;;;;42.00;23.45;;;10.50;99.90;;;;;;5039328;28;20571;-70
2022/04/14 05:33:28;;;;;;;35.15;21.27;;;10.40;99.90;;;;;;5041118;28;20278;-71
2022/04/14 05:35:54;;;;;;;37.38;22.38;;;10.30;99.90;;;;;;5045436;28;20040;-71
2022/04/14 05:38:20;;;;;;;33.35;21.48;;;10.20;99.90;;;;;;5026457;28;20040;-71
2022/04/14 05:40:46;;;;;;;34.35;23.00;;;10.10;99.90;;;;;;5051470;28;20055;-70
2022/04/14 05:43:18;;;;;;;38.08;21.98;;;10.00;99.90;;;;;;5020808;28;20152;-70
2022/04/14 05:45:47;;;;;;;39.28;22.85;;;9.90;99.90;;;;;;5026520;28;20048;-70
2022/04/14 05:48:16;;;;;;;37.72;23.05;;;9.80;99.90;;;;;;5034942;28;20057;-70
2022/04/14 05:50:42;;;;;;;39.03;24.70;;;9.70;99.90;;;;;;5034259;28;20059;-70
2022/04/14 05:53:09;;;;;;;41.35;25.52;;;9.80;99.90;;;;;;5049489;28;20040;-70
2022/04/14 05:55:35;;;;;;;41.35;25.08;;;9.80;99.90;;;;;;5051947;28;20036;-70
2022/04/14 05:58:03;;;;;;;38.13;24.35;;;9.80;99.90;;;;;;5068138;28;20504;-70
2022/04/14 06:00:30;;;;;;;43.75;25.77;;;9.80;99.90;;;;;;5047159;28;20045;-70
2022/04/14 06:02:56;;;;;;;38.83;24.67;;;10.20;99.90;;;;;;5048011;28;20277;-70
2022/04/14 06:05:22;;;;;;;38.13;24.30;;;10.50;99.90;;;;;;5071579;28;20075;-70
2022/04/14 06:07:48;;;;;;;34.88;23.85;;;10.80;99.90;;;;;;5057467;28;20064;-70
2022/04/14 06:10:15;;;;;;;39.97;22.00;;;10.90;99.90;;;;;;5062359;28;20098;-70
2022/04/14 06:12:41;;;;;;;33.80;21.95;;;11.00;99.90;;;;;;5052228;28;20117;-71
2022/04/14 06:15:07;;;;;;;35.15;22.15;;;11.00;99.90;;;;;;5047240;28;20033;-70
2022/04/14 06:17:32;;;;;;;35.70;21.77;;;10.90;99.90;;;;;;5051171;28;20044;-70
2022/04/14 06:19:58;;;;;;;41.47;24.08;;;10.90;99.90;;;;;;5046148;28;20390;-70
2022/04/14 06:22:24;;;;;;;38.80;23.17;;;10.90;99.90;;;;;;5042633;28;20536;-70
2022/04/14 06:24:50;;;;;;;35.67;22.33;;;11.20;99.90;;;;;;5050414;28;20135;-70
2022/04/14 06:27:15;;;;;;;34.90;21.17;;;12.00;99.90;;;;;;5069532;28;20097;-70
2022/04/14 06:29:41;;;;;;;40.67;21.13;;;12.00;99.90;;;;;;5069338;28;20094;-70
2022/04/14 06:32:10;;;;;;;34.47;21.98;;;13.10;99.90;;;;;;5051361;28;20131;-70
2022/04/14 06:34:35;;;;;;;33.20;20.33;;;14.20;99.90;;;;;;5068646;28;20058;-69
2022/04/14 06:37:01;;;;;;;33.25;20.40;;;13.60;99.90;;;;;;5051625;28;20036;-70
2022/04/14 06:39:27;;;;;;;27.17;18.38;;;14.00;99.90;;;;;;5069400;28;20072;-69
2022/04/14 06:41:52;;;;;;;29.33;18.65;;;14.50;99.90;;;;;;5051182;28;20073;-70
2022/04/14 06:44:18;;;;;;;36.03;20.00;;;14.50;99.90;;;;;;5051861;28;20424;-70
2022/04/14 06:46:44;;;;;;;31.85;18.75;;;15.10;99.90;;;;;;5051980;28;20037;-70
2022/04/14 06:49:09;;;;;;;30.65;18.42;;;15.50;99.90;;;;;;5044752;28;20068;-69
2022/04/14 06:51:35;;;;;;;28.38;18.20;;;16.20;99.90;;;;;;5042314;28;20040;-69
2022/04/14 06:54:01;;;;;;;36.75;19.42;;;15.80;99.90;;;;;;5050235;28;20090;-70
2022/04/14 06:56:26;;;;;;;30.17;19.20;;;16.00;99.90;;;;;;5047893;28;20052;-70
2022/04/14 06:58:52;;;;;;;30.83;19.85;;;16.00;99.90;;;;;;5061502;28;20048;-70
2022/04/14 07:01:18;;;;;;;32.55;18.77;;;15.70;99.90;;;;;;5067975;28;20033;-79
2022/04/14 07:03:43;;;;;;;33.20;18.67;;;15.40;99.90;;;;;;5047557;28;20103;-79
2022/04/14 07:06:09;;;;;;;34.38;19.30;;;15.10;99.90;;;;;;5051172;28;20094;-80
2022/04/14 07:08:38;;;;;;;31.10;19.38;;;15.10;99.90;;;;;;5033061;28;20121;-79
2022/04/14 07:11:04;;;;;;;29.20;18.67;;;14.70;99.90;;;;;;5047077;28;20048;-79
2022/04/14 07:13:30;;;;;;;31.17;19.55;;;14.60;99.90;;;;;;5032039;28;20179;-79
2022/04/14 07:15:57;;;;;;;34.30;19.48;;;14.70;99.90;;;;;;5063292;28;20127;-81
2022/04/14 07:18:24;;;;;;;28.10;17.65;;;14.50;99.90;;;;;;5050431;28;20037;-78
2022/04/14 07:20:50;;;;;;;30.58;18.90;;;14.60;99.90;;;;;;5061828;28;20109;-80
2022/04/14 07:23:15;;;;;;;26.77;17.60;;;14.70;99.90;;;;;;5034738;28;20036;-78
2022/04/14 07:25:41;;;;;;;27.30;17.30;;;14.90;99.90;;;;;;5029934;28;20056;-80
2022/04/14 07:28:09;;;;;;;28.67;18.25;;;15.20;99.90;;;;;;5047096;28;20036;-80
2022/04/14 07:30:35;;;;;;;28.58;17.65;;;15.40;99.90;;;;;;5034579;28;20521;-80
2022/04/14 07:33:01;;;;;;;31.10;17.90;;;15.50;99.90;;;;;;5028958;28;20072;-80
2022/04/14 07:35:26;;;;;;;26.77;17.90;;;15.60;99.90;;;;;;5044915;28;20040;-81
2022/04/14 07:37:53;;;;;;;30.80;17.85;;;15.80;99.90;;;;;;5028878;28;20048;-81
2022/04/14 07:40:19;;;;;;;28.75;17.83;;;15.90;99.90;;;;;;5061803;28;20500;-81
2022/04/14 07:42:46;;;;;;;29.92;18.52;;;16.00;99.90;;;;;;5044342;28;20033;-82
2022/04/14 07:45:13;;;;;;;29.45;18.08;;;16.30;99.90;;;;;;5058705;28;20453;-81
2022/04/14 07:47:41;;;;;;;28.63;17.52;;;16.30;99.90;;;;;;5061205;28;20043;-81
2022/04/14 07:50:15;;;;;;;23.05;16.25;;;16.50;99.90;;;;;;5041172;28;20098;-81
2022/04/14 07:52:48;;;;;;;31.10;15.90;;;16.60;99.90;;;;;;5060564;28;20409;-82
2022/04/14 07:55:26;;;;;;;22.10;15.95;;;16.80;99.90;;;;;;5027684;28;20052;-81
2022/04/14 07:57:53;;;;;;;26.27;16.30;;;17.00;99.90;;;;;;5028089;28;20454;-81
2022/04/14 08:00:20;;;;;;;22.25;15.98;;;17.20;99.90;;;;;;5063613;28;20107;-82
2022/04/14 08:02:53;;;;;;;22.92;15.25;;;17.30;99.90;;;;;;5044815;28;20051;-81
2022/04/14 08:05:20;;;;;;;25.75;15.43;;;17.50;99.90;;;;;;5044244;28;20048;-82
2022/04/14 08:07:46;;;;;;;26.58;15.20;;;17.60;99.90;;;;;;5042303;28;20091;-83
2022/04/14 08:10:12;;;;;;;28.95;15.80;;;17.70;99.90;;;;;;5031430;28;20072;-81
2022/04/14 08:12:37;;;;;;;22.55;15.27;;;17.90;99.90;;;;;;5049787;28;20544;-82
2022/04/14 08:15:04;;;;;;;21.75;14.63;;;18.00;99.90;;;;;;5049440;28;20040;-82
2022/04/14 08:17:32;;;;;;;22.55;15.68;;;18.10;99.90;;;;;;5035664;28;20114;-81
2022/04/14 08:19:58;;;;;;;23.13;16.25;;;18.30;99.90;;;;;;5036716;28;20043;-81
2022/04/14 08:22:24;;;;;;;21.90;14.50;;;18.20;99.90;;;;;;5055490;28;20123;-81
2022/04/14 08:24:50;;;;;;;21.65;14.32;;;18.20;99.90;;;;;;5050302;28;20056;-81
2022/04/14 08:27:18;;;;;;;20.67;14.65;;;18.30;99.90;;;;;;5034343;28;20127;-81
2022/04/14 08:29:43;;;;;;;25.05;15.40;;;18.40;99.90;;;;;;5050711;28;20358;-81
2022/04/14 08:32:09;;;;;;;23.67;14.82;;;18.50;99.90;;;;;;5051310;28;20120;-82
2022/04/14 08:34:36;;;;;;;22.35;14.90;;;18.50;99.90;;;;;;5047368;28;20040;-81
2022/04/14 08:37:02;;;;;;;19.60;13.48;;;18.50;99.90;;;;;;5051866;28;20500;-81
2022/04/14 08:39:29;;;;;;;20.63;13.35;;;18.60;99.90;;;;;;5035053;28;20047;-81
2022/04/14 08:42:05;;;;;;;19.20;13.27;;;18.80;99.90;;;;;;5071481;28;20040;-81
2022/04/14 08:44:35;;;;;;;18.55;12.77;;;19.00;99.90;;;;;;5083028;28;20071;-81
2022/04/14 08:47:02;;;;;;;19.65;12.38;;;19.20;99.90;;;;;;5071844;28;20511;-82
2022/04/14 08:49:30;;;;;;;16.30;10.40;;;19.30;99.90;;;;;;5071502;28;20041;-82
2022/04/14 08:51:56;;;;;;;19.98;12.15;;;19.50;99.90;;;;;;5073202;28;20084;-83
2022/04/14 08:54:23;;;;;;;18.10;11.45;;;19.40;99.90;;;;;;5073165;28;20115;-83
2022/04/14 08:56:51;;;;;;;15.27;10.60;;;19.50;99.90;;;;;;5063360;28;20052;-83
2022/04/14 08:59:18;;;;;;;15.98;10.40;;;19.60;99.90;;;;;;5055841;28;20045;-82
2022/04/14 09:01:44;;;;;;;15.68;10.55;;;19.70;99.90;;;;;;5054554;28;20033;-82
2022/04/14 09:04:11;;;;;;;16.80;11.20;;;19.80;99.90;;;;;;5048551;28;20029;-83
2022/04/14 09:06:37;;;;;;;15.93;9.88;;;19.80;99.90;;;;;;5058455;28;20052;-83
2022/04/14 09:09:03;;;;;;;16.25;8.98;;;19.80;99.90;;;;;;5071626;28;20036;-82
2022/04/14 09:11:30;;;;;;;15.20;9.38;;;19.80;99.90;;;;;;5062259;28;20051;-81
2022/04/14 09:13:59;;;;;;;15.38;9.10;;;19.80;99.90;;;;;;5045297;28;20567;-82
2022/04/14 09:16:26;;;;;;;15.23;9.57;;;19.70;99.90;;;;;;5054416;28;20041;-83
2022/04/14 09:18:53;;;;;;;13.73;8.65;;;19.70;99.90;;;;;;5036599;28;20044;-83
2022/04/14 09:21:19;;;;;;;16.13;9.05;;;19.90;99.90;;;;;;5051812;28;20045;-83
2022/04/14 09:23:52;;;;;;;15.90;9.43;;;20.00;99.90;;;;;;5070665;28;20090;-83
2022/04/14 09:26:23;;;;;;;15.43;8.90;;;20.00;99.90;;;;;;5046497;28;20040;-83
2022/04/14 09:29:04;;;;;;;13.43;8.63;;;20.10;99.90;;;;;;5070464;28;20186;-81
2022/04/14 09:31:30;;;;;;;13.00;8.25;;;20.20;99.90;;;;;;5070623;28;20037;-80
2022/04/14 09:33:56;;;;;;;12.85;6.90;;;20.20;99.90;;;;;;5036170;28;20048;-78
2022/04/14 09:36:27;;;;;;;13.57;8.20;;;20.20;99.90;;;;;;5070441;28;20044;-80
2022/04/14 09:38:58;;;;;;;11.90;6.68;;;20.00;99.90;;;;;;5052606;28;20182;-81
2022/04/14 09:41:27;;;;;;;;;;;19.70;99.90;;;;;;5045365;28;20041;-81
2022/04/14 09:43:54;;;;;;;12.40;7.47;;;19.40;99.90;;;;;;5042249;28;19959;-81
2022/04/14 09:46:20;;;;;;;10.95;6.68;;;19.10;99.90;;;;;;5053119;28;20040;-82
2022/04/14 09:49:05;;;;;;;12.98;7.22;;;18.90;99.90;;;;;;5046507;28;20493;-71
2022/04/14 09:51:32;;;;;;;13.55;7.55;;;18.80;99.90;;;;;;5051800;28;20072;-71
2022/04/14 09:54:12;;;;;;;15.23;8.13;;;18.80;99.90;;;;;;5052371;28;20502;-71
2022/04/14 09:56:47;;;;;;;17.20;7.20;;;18.90;99.90;;;;;;5050973;28;20079;-71
2022/04/14 09:59:17;;;;;;;15.15;7.63;;;19.10;99.90;;;;;;5069848;28;20083;-71
2022/04/14 10:01:43;;;;;;;12.52;7.20;;;19.20;99.90;;;;;;5061940;28;20044;-71
2022/04/14 10:04:32;;;;;;;13.95;7.05;;;19.10;99.90;;;;;;5052791;28;20044;-71
2022/04/14 10:07:05;;;;;;;15.15;7.22;;;18.90;99.90;;;;;;5069586;28;20082;-71
2022/04/14 10:09:30;;;;;;;15.85;6.70;;;18.70;99.90;;;;;;5070163;28;20048;-73
2022/04/14 10:11:56;;;;;;;15.50;7.80;;;18.50;99.90;;;;;;5069495;28;20039;-71
2022/04/14 10:14:24;;;;;;;12.98;7.32;;;18.70;99.90;;;;;;5085233;28;20400;-71
2022/04/14 10:16:50;;;;;;;15.40;7.25;;;18.80;99.90;;;;;;5068864;28;20048;-71
2022/04/14 10:19:16;;;;;;;17.13;8.73;;;18.80;99.90;;;;;;5052377;28;20494;-71
2022/04/14 10:21:43;;;;;;;14.73;8.00;;;18.80;99.90;;;;;;5052251;28;20059;-72
2022/04/14 10:24:11;;;;;;;14.63;7.40;;;18.90;99.90;;;;;;5046096;28;20292;-71
2022/04/14 10:26:38;;;;;;;14.80;8.25;;;18.90;99.90;;;;;;5017915;28;20127;-72
2022/04/14 10:29:06;;;;;;;9.95;5.22;;;18.60;99.90;;;;;;5033715;28;20497;-72
2022/04/14 10:31:36;;;;;;;8.93;4.13;;;18.30;99.90;;;;;;5047141;28;20045;-72
2022/04/14 10:34:04;;;;;;;8.48;4.10;;;17.90;99.90;;;;;;5037378;28;20135;-71
2022/04/14 10:36:41;;;;;;;10.45;4.20;;;17.80;99.90;;;;;;5044453;28;20040;-72
2022/04/14 10:39:11;;;;;;;9.88;4.18;;;17.50;99.90;;;;;;5036785;28;20123;-71
2022/04/14 10:41:41;;;;;;;8.57;3.78;;;17.50;99.90;;;;;;5052971;28;20048;-72
2022/04/14 10:44:07;;;;;;;9.07;3.38;;;17.60;99.90;;;;;;5050528;28;20044;-72
2022/04/14 10:46:44;;;;;;;7.78;3.30;;;17.60;99.90;;;;;;5068970;28;20037;-72
2022/04/14 10:49:11;;;;;;;8.45;2.80;;;17.50;99.90;;;;;;5068559;28;20386;-73
2022/04/14 10:51:38;;;;;;;6.70;2.95;;;17.70;99.90;;;;;;5069065;28;20053;-72
2022/04/14 10:54:05;;;;;;;8.75;2.95;;;17.90;99.90;;;;;;5034265;28;20105;-71
2022/04/14 10:56:44;;;;;;;7.38;2.42;;;18.20;99.90;;;;;;5052440;28;20513;-71
2022/04/14 10:59:11;;;;;;;8.50;3.65;;;18.50;99.90;;;;;;5014328;28;20429;-71
2022/04/14 11:01:52;;;;;;;8.00;3.30;;;18.80;99.90;;;;;;5049406;28;20048;-72
2022/04/14 11:04:46;;;;;;;8.77;2.60;;;18.90;99.90;;;;;;5065139;28;20037;-72
2022/04/14 11:07:31;;;;;;;6.60;1.85;;;19.00;99.90;;;;;;5034624;28;20135;-71
2022/04/14 11:10:00;;;;;;;5.80;1.67;;;19.00;99.90;;;;;;5073309;28;20057;-72
2022/04/14 11:12:29;;;;;;;7.90;2.22;;;19.10;99.90;;;;;;5044997;28;20536;-71
2022/04/14 11:15:03;;;;;;;9.02;3.15;;;19.00;99.90;;;;;;5067286;28;20044;-71
2022/04/14 11:17:37;;;;;;;9.70;2.65;;;19.00;99.90;;;;;;5033558;28;20091;-71
2022/04/14 11:20:20;;;;;;;7.60;2.60;;;19.00;99.90;;;;;;5038633;28;20045;-71
2022/04/14 11:23:04;;;;;;;8.20;2.70;;;19.10;99.90;;;;;;5053604;28;20048;-72
2022/04/14 11:25:49;;;;;;;10.48;3.50;;;19.30;99.90;;;;;;5030507;28;20399;-71
2022/04/14 11:28:25;;;;;;;8.80;3.08;;;19.40;99.90;;;;;;5030164;28;20045;-71
2022/04/14 11:30:53;;;;;;;7.72;3.42;;;19.50;99.90;;;;;;5026252;28;20060;-73
2022/04/14 11:33:28;;;;;;;8.05;3.80;;;19.40;99.90;;;;;;5059478;28;20049;-72
2022/04/14 11:36:06;;;;;;;7.68;3.83;;;19.40;99.90;;;;;;5047352;28;20037;-71
2022/04/14 11:38:54;;;;;;;8.27;3.72;;;19.20;99.90;;;;;;5047579;28;20124;-72
2022/04/14 11:41:46;;;;;;;10.98;4.63;;;19.00;99.90;;;;;;5013861;28;20048;-71
2022/04/14 11:44:34;;;;;;;9.02;4.25;;;18.90;99.90;;;;;;5029202;28;20044;-71
2022/04/14 11:47:02;;;;;;;9.68;4.38;;;18.70;99.90;;;;;;5049250;28;20658;-71
2022/04/14 11:49:32;;;;;;;9.48;4.50;;;18.60;99.90;;;;;;5067590;28;20112;-72
2022/04/14 11:52:05;;;;;;;10.95;4.90;;;18.70;99.90;;;;;;5049545;28;20059;-70
2022/04/14 11:54:31;;;;;;;9.52;3.58;;;18.70;99.90;;;;;;5050093;28;20056;-71
2022/04/14 11:56:58;;;;;;;5.80;3.28;;;18.60;99.90;;;;;;5048550;28;20573;-71
2022/04/14 11:59:32;;;;;;;10.80;4.25;;;18.60;99.90;;;;;;5033192;28;20040;-71
2022/04/14 12:02:08;;;;;;;9.57;4.30;;;18.60;99.90;;;;;;5082472;28;20048;-72
2022/04/14 12:04:35;;;;;;;10.20;4.00;;;18.50;99.90;;;;;;5066386;28;20037;-71
2022/04/14 12:07:01;;;;;;;10.50;4.90;;;18.50;99.90;;;;;;5039951;28;20032;-71
2022/04/14 12:09:27;;;;;;;13.07;4.68;;;18.50;99.90;;;;;;5031265;28;20109;-71
2022/04/14 12:11:52;;;;;;;8.52;4.18;;;18.60;99.90;;;;;;5037626;28;20397;-71
2022/04/14 12:14:19;;;;;;;9.13;3.67;;;18.60;99.90;;;;;;5049876;28;20040;-71
2022/04/14 12:16:52;;;;;;;10.60;3.85;;;18.70;99.90;;;;;;5049227;28;20470;-71
2022/04/14 12:19:19;;;;;;;8.80;3.92;;;18.80;99.90;;;;;;5067515;28;20071;-71
2022/04/14 12:22:05;;;;;;;9.52;3.60;;;18.90;99.90;;;;;;5048658;28;20036;-71
2022/04/14 12:24:31;;;;;;;9.02;3.45;;;18.70;99.90;;;;;;5030922;28;20101;-70
2022/04/14 12:26:58;;;;;;;6.82;2.80;;;18.70;99.90;;;;;;5032362;28;20435;-72
2022/04/14 12:29:24;;;;;;;6.15;2.30;;;18.60;99.90;;;;;;5033074;28;20040;-72
2022/04/14 12:31:55;;;;;;;9.35;2.60;;;18.40;99.90;;;;;;5049016;28;20041;-72
2022/04/14 12:34:22;;;;;;;6.47;2.33;;;18.30;99.90;;;;;;5048965;28;20037;-72
2022/04/14 12:36:48;;;;;;;7.70;2.05;;;18.20;99.90;;;;;;5047103;28;20115;-72
2022/04/14 12:39:20;;;;;;;6.10;1.90;;;18.10;99.90;;;;;;5049298;28;20131;-71